sensor_id;sensor_type;location;lat;lon;timestamp;P1;durP1;ratioP1;P2;durP2;ratioP2
21140;SDS011;10728;53.284;10.314;2022-07-23T00:01:11;3.60;;;1.67;;
21140;SDS011;10728;53.284;10.314;2022-07-23T00:03:39;4.45;;;1.58;;
21140;SDS011;10728;53.284;10.314;2022-07-23T00:06:05;2.47;;;1.60;;
21140;SDS011;10728;53.284;10.314;2022-07-23T00:08:33;2.00;;;1.50;;
21140;SDS011;10728;53.284;10.314;2022-07-23T00:11:02;3.88;;;1.50;;
21140;SDS011;10728;53.284;10.314;2022-07-23T00:13:27;3.92;;;1.60;;
21140;SDS011;10728;53.284;10.314;2022-07-23T00:15:53;3.47;;;1.67;;
21140;SDS011;10728;53.284;10.314;2022-07-23T00:18:22;1.75;;;1.38;;
21140;SDS011;10728;53.284;10.314;2022-07-23T00:20:50;2.75;;;1.60;;
21140;SDS011;10728;53.284;10.314;2022-07-23T00:23:19;2.63;;;1.43;;
21140;SDS011;10728;53.284;10.314;2022-07-23T00:25:55;2.20;;;1.47;;
21140;SDS011;10728;53.284;10.314;2022-07-23T00:28:20;2.65;;;1.88;;
21140;SDS011;10728;53.284;10.314;2022-07-23T00:30:46;7.10;;;1.80;;
21140;SDS011;10728;53.284;10.314;2022-07-23T00:33:14;4.82;;;2.13;;
21140;SDS011;10728;53.284;10.314;2022-07-23T00:35:43;3.38;;;1.60;;
21140;SDS011;10728;53.284;10.314;2022-07-23T00:38:11;3.10;;;1.92;;
21140;SDS011;10728;53.284;10.314;2022-07-23T00:40:37;8.40;;;2.53;;
21140;SDS011;10728;53.284;10.314;2022-07-23T00:43:14;2.35;;;1.73;;
21140;SDS011;10728;53.284;10.314;2022-07-23T00:45:39;4.43;;;2.28;;
21140;SDS011;10728;53.284;10.314;2022-07-23T00:48:06;4.00;;;2.00;;
21140;SDS011;10728;53.284;10.314;2022-07-23T00:50:31;2.92;;;1.40;;
21140;SDS011;10728;53.284;10.314;2022-07-23T00:52:59;2.65;;;1.65;;
21140;SDS011;10728;53.284;10.314;2022-07-23T00:55:31;2.97;;;1.60;;
21140;SDS011;10728;53.284;10.314;2022-07-23T00:58:02;5.05;;;1.65;;
21140;SDS011;10728;53.284;10.314;2022-07-23T01:00:28;2.10;;;1.80;;
21140;SDS011;10728;53.284;10.314;2022-07-23T01:02:53;1.80;;;1.52;;
21140;SDS011;10728;53.284;10.314;2022-07-23T01:05:19;2.42;;;1.63;;
21140;SDS011;10728;53.284;10.314;2022-07-23T01:07:51;1.67;;;1.58;;
21140;SDS011;10728;53.284;10.314;2022-07-23T01:10:17;5.22;;;2.10;;
21140;SDS011;10728;53.284;10.314;2022-07-23T01:13:05;4.37;;;1.73;;
21140;SDS011;10728;53.284;10.314;2022-07-23T01:15:38;5.93;;;2.20;;
21140;SDS011;10728;53.284;10.314;2022-07-23T01:18:04;3.83;;;1.93;;
21140;SDS011;10728;53.284;10.314;2022-07-23T01:20:37;2.70;;;1.50;;
21140;SDS011;10728;53.284;10.314;2022-07-23T01:23:03;4.72;;;1.65;;
21140;SDS011;10728;53.284;10.314;2022-07-23T01:25:29;3.65;;;1.55;;
21140;SDS011;10728;53.284;10.314;2022-07-23T01:28:02;5.28;;;2.28;;
21140;SDS011;10728;53.284;10.314;2022-07-23T01:30:33;6.93;;;2.27;;
21140;SDS011;10728;53.284;10.314;2022-07-23T01:33:05;3.05;;;1.80;;
21140;SDS011;10728;53.284;10.314;2022-07-23T01:35:37;3.10;;;1.60;;
21140;SDS011;10728;53.284;10.314;2022-07-23T01:38:06;3.58;;;1.80;;
21140;SDS011;10728;53.284;10.314;2022-07-23T01:40:34;4.33;;;1.87;;
21140;SDS011;10728;53.284;10.314;2022-07-23T01:43:00;2.33;;;1.50;;
21140;SDS011;10728;53.284;10.314;2022-07-23T01:45:29;3.65;;;1.60;;
21140;SDS011;10728;53.284;10.314;2022-07-23T01:47:57;2.37;;;1.43;;
21140;SDS011;10728;53.284;10.314;2022-07-23T01:50:37;1.75;;;1.38;;
21140;SDS011;10728;53.284;10.314;2022-07-23T01:53:21;2.17;;;1.38;;
21140;SDS011;10728;53.284;10.314;2022-07-23T01:56:03;3.20;;;1.80;;
21140;SDS011;10728;53.284;10.314;2022-07-23T01:58:29;3.25;;;2.03;;
21140;SDS011;10728;53.284;10.314;2022-07-23T02:00:58;2.20;;;1.70;;
21140;SDS011;10728;53.284;10.314;2022-07-23T02:03:32;2.37;;;1.20;;
21140;SDS011;10728;53.284;10.314;2022-07-23T02:06:05;2.60;;;1.33;;
21140;SDS011;10728;53.284;10.314;2022-07-23T02:08:48;2.10;;;1.57;;
21140;SDS011;10728;53.284;10.314;2022-07-23T02:11:17;2.20;;;1.70;;
21140;SDS011;10728;53.284;10.314;2022-07-23T02:13:51;2.50;;;1.60;;
21140;SDS011;10728;53.284;10.314;2022-07-23T02:16:24;4.10;;;1.70;;
21140;SDS011;10728;53.284;10.314;2022-07-23T02:18:54;2.10;;;1.50;;
21140;SDS011;10728;53.284;10.314;2022-07-23T02:21:26;2.63;;;1.67;;
21140;SDS011;10728;53.284;10.314;2022-07-23T02:23:52;2.40;;;1.40;;
21140;SDS011;10728;53.284;10.314;2022-07-23T02:26:21;1.63;;;1.47;;
21140;SDS011;10728;53.284;10.314;2022-07-23T02:28:58;3.17;;;1.60;;
21140;SDS011;10728;53.284;10.314;2022-07-23T02:31:31;2.57;;;1.40;;
21140;SDS011;10728;53.284;10.314;2022-07-23T02:34:15;1.63;;;1.33;;
21140;SDS011;10728;53.284;10.314;2022-07-23T02:36:40;2.33;;;1.87;;
21140;SDS011;10728;53.284;10.314;2022-07-23T02:39:11;2.33;;;1.57;;
21140;SDS011;10728;53.284;10.314;2022-07-23T02:41:39;2.77;;;1.73;;
21140;SDS011;10728;53.284;10.314;2022-07-23T02:44:21;2.63;;;1.40;;
21140;SDS011;10728;53.284;10.314;2022-07-23T02:46:57;2.30;;;1.60;;
21140;SDS011;10728;53.284;10.314;2022-07-23T02:49:27;5.03;;;1.92;;
21140;SDS011;10728;53.284;10.314;2022-07-23T02:52:00;2.27;;;1.90;;
21140;SDS011;10728;53.284;10.314;2022-07-23T02:54:27;3.87;;;2.20;;
21140;SDS011;10728;53.284;10.314;2022-07-23T02:57:00;3.43;;;1.57;;
21140;SDS011;10728;53.284;10.314;2022-07-23T02:59:26;3.87;;;1.80;;
21140;SDS011;10728;53.284;10.314;2022-07-23T03:01:52;5.77;;;1.70;;
21140;SDS011;10728;53.284;10.314;2022-07-23T03:04:21;2.30;;;2.10;;
21140;SDS011;10728;53.284;10.314;2022-07-23T03:06:49;4.13;;;1.75;;
21140;SDS011;10728;53.284;10.314;2022-07-23T03:09:17;2.73;;;1.63;;
21140;SDS011;10728;53.284;10.314;2022-07-23T03:11:45;3.33;;;1.80;;
21140;SDS011;10728;53.284;10.314;2022-07-23T03:14:11;6.20;;;1.50;;
21140;SDS011;10728;53.284;10.314;2022-07-23T03:16:43;2.08;;;1.70;;
21140;SDS011;10728;53.284;10.314;2022-07-23T03:19:11;2.70;;;1.90;;
21140;SDS011;10728;53.284;10.314;2022-07-23T03:21:42;4.03;;;1.93;;
21140;SDS011;10728;53.284;10.314;2022-07-23T03:24:12;2.53;;;1.70;;
21140;SDS011;10728;53.284;10.314;2022-07-23T03:26:37;2.57;;;2.13;;
21140;SDS011;10728;53.284;10.314;2022-07-23T03:29:06;1.87;;;1.70;;
21140;SDS011;10728;53.284;10.314;2022-07-23T03:31:35;2.80;;;1.93;;
21140;SDS011;10728;53.284;10.314;2022-07-23T03:34:06;3.23;;;2.13;;
21140;SDS011;10728;53.284;10.314;2022-07-23T03:36:32;4.27;;;1.60;;
21140;SDS011;10728;53.284;10.314;2022-07-23T03:39:00;3.53;;;1.80;;
21140;SDS011;10728;53.284;10.314;2022-07-23T03:41:28;4.87;;;1.40;;
21140;SDS011;10728;53.284;10.314;2022-07-23T03:44:01;1.40;;;1.10;;
21140;SDS011;10728;53.284;10.314;2022-07-23T03:46:27;2.30;;;1.97;;
21140;SDS011;10728;53.284;10.314;2022-07-23T03:51:36;4.53;;;1.90;;
21140;SDS011;10728;53.284;10.314;2022-07-23T03:54:01;4.80;;;1.87;;
21140;SDS011;10728;53.284;10.314;2022-07-23T03:56:38;3.20;;;1.70;;
21140;SDS011;10728;53.284;10.314;2022-07-23T03:59:16;3.10;;;1.90;;
21140;SDS011;10728;53.284;10.314;2022-07-23T04:04:31;3.93;;;1.70;;
21140;SDS011;10728;53.284;10.314;2022-07-23T04:06:57;3.50;;;1.63;;
21140;SDS011;10728;53.284;10.314;2022-07-23T04:09:25;2.73;;;2.23;;
21140;SDS011;10728;53.284;10.314;2022-07-23T04:11:56;3.43;;;1.63;;
21140;SDS011;10728;53.284;10.314;2022-07-23T04:14:22;2.03;;;1.50;;
21140;SDS011;10728;53.284;10.314;2022-07-23T04:16:53;2.67;;;2.20;;
21140;SDS011;10728;53.284;10.314;2022-07-23T04:19:23;2.43;;;2.23;;
21140;SDS011;10728;53.284;10.314;2022-07-23T04:22:02;2.70;;;1.93;;
21140;SDS011;10728;53.284;10.314;2022-07-23T04:24:40;4.43;;;2.00;;
21140;SDS011;10728;53.284;10.314;2022-07-23T04:27:09;4.43;;;2.30;;
21140;SDS011;10728;53.284;10.314;2022-07-23T04:29:38;2.63;;;1.50;;
21140;SDS011;10728;53.284;10.314;2022-07-23T04:32:13;3.93;;;1.73;;
21140;SDS011;10728;53.284;10.314;2022-07-23T04:34:41;5.13;;;2.20;;
21140;SDS011;10728;53.284;10.314;2022-07-23T04:37:10;3.67;;;1.73;;
21140;SDS011;10728;53.284;10.314;2022-07-23T04:39:39;6.67;;;2.23;;
21140;SDS011;10728;53.284;10.314;2022-07-23T04:42:12;5.10;;;2.17;;
21140;SDS011;10728;53.284;10.314;2022-07-23T04:44:51;5.43;;;2.13;;
21140;SDS011;10728;53.284;10.314;2022-07-23T04:48:02;4.97;;;2.40;;
21140;SDS011;10728;53.284;10.314;2022-07-23T04:50:35;7.00;;;2.00;;
21140;SDS011;10728;53.284;10.314;2022-07-23T04:53:05;5.47;;;2.20;;
21140;SDS011;10728;53.284;10.314;2022-07-23T04:55:36;3.57;;;2.03;;
21140;SDS011;10728;53.284;10.314;2022-07-23T04:58:10;3.43;;;1.93;;
21140;SDS011;10728;53.284;10.314;2022-07-23T05:00:42;3.00;;;1.63;;
21140;SDS011;10728;53.284;10.314;2022-07-23T05:03:21;2.97;;;1.77;;
21140;SDS011;10728;53.284;10.314;2022-07-23T05:05:53;4.17;;;1.90;;
21140;SDS011;10728;53.284;10.314;2022-07-23T05:08:24;5.60;;;2.13;;
21140;SDS011;10728;53.284;10.314;2022-07-23T05:11:00;3.27;;;2.17;;
21140;SDS011;10728;53.284;10.314;2022-07-23T05:13:41;4.50;;;1.80;;
21140;SDS011;10728;53.284;10.314;2022-07-23T05:16:25;4.97;;;2.07;;
21140;SDS011;10728;53.284;10.314;2022-07-23T05:19:02;2.97;;;2.20;;
21140;SDS011;10728;53.284;10.314;2022-07-23T05:21:48;4.87;;;2.40;;
21140;SDS011;10728;53.284;10.314;2022-07-23T05:24:32;3.40;;;2.27;;
21140;SDS011;10728;53.284;10.314;2022-07-23T05:27:04;4.83;;;2.33;;
21140;SDS011;10728;53.284;10.314;2022-07-23T05:29:46;4.13;;;2.20;;
21140;SDS011;10728;53.284;10.314;2022-07-23T05:32:15;6.00;;;2.30;;
21140;SDS011;10728;53.284;10.314;2022-07-23T05:34:54;2.33;;;1.90;;
21140;SDS011;10728;53.284;10.314;2022-07-23T05:37:59;4.20;;;1.83;;
21140;SDS011;10728;53.284;10.314;2022-07-23T05:40:33;3.80;;;1.97;;
21140;SDS011;10728;53.284;10.314;2022-07-23T05:43:07;5.43;;;2.43;;
21140;SDS011;10728;53.284;10.314;2022-07-23T05:46:02;3.25;;;1.92;;
21140;SDS011;10728;53.284;10.314;2022-07-23T05:48:34;4.90;;;2.30;;
21140;SDS011;10728;53.284;10.314;2022-07-23T05:51:32;3.35;;;2.50;;
21140;SDS011;10728;53.284;10.314;2022-07-23T05:54:02;4.30;;;2.23;;
21140;SDS011;10728;53.284;10.314;2022-07-23T05:56:42;4.17;;;2.10;;
21140;SDS011;10728;53.284;10.314;2022-07-23T05:59:13;7.37;;;2.63;;
21140;SDS011;10728;53.284;10.314;2022-07-23T06:01:48;4.33;;;2.07;;
21140;SDS011;10728;53.284;10.314;2022-07-23T06:04:18;2.47;;;1.87;;
21140;SDS011;10728;53.284;10.314;2022-07-23T06:06:57;5.90;;;2.17;;
21140;SDS011;10728;53.284;10.314;2022-07-23T06:09:31;4.68;;;2.40;;
21140;SDS011;10728;53.284;10.314;2022-07-23T06:12:07;5.55;;;2.22;;
21140;SDS011;10728;53.284;10.314;2022-07-23T06:14:48;3.50;;;2.00;;
21140;SDS011;10728;53.284;10.314;2022-07-23T06:17:19;6.35;;;2.00;;
21140;SDS011;10728;53.284;10.314;2022-07-23T06:19:47;6.82;;;2.13;;
21140;SDS011;10728;53.284;10.314;2022-07-23T06:22:14;5.65;;;2.03;;
21140;SDS011;10728;53.284;10.314;2022-07-23T06:24:56;3.35;;;1.67;;
21140;SDS011;10728;53.284;10.314;2022-07-23T06:27:27;4.90;;;1.85;;
21140;SDS011;10728;53.284;10.314;2022-07-23T06:29:58;4.40;;;1.63;;
21140;SDS011;10728;53.284;10.314;2022-07-23T06:32:24;4.43;;;1.77;;
21140;SDS011;10728;53.284;10.314;2022-07-23T06:34:55;5.72;;;1.60;;
21140;SDS011;10728;53.284;10.314;2022-07-23T06:37:35;4.13;;;1.55;;
21140;SDS011;10728;53.284;10.314;2022-07-23T06:40:14;4.75;;;1.75;;
21140;SDS011;10728;53.284;10.314;2022-07-23T06:42:45;6.55;;;1.73;;
21140;SDS011;10728;53.284;10.314;2022-07-23T06:45:46;4.50;;;1.75;;
21140;SDS011;10728;53.284;10.314;2022-07-23T06:48:23;9.93;;;1.55;;
21140;SDS011;10728;53.284;10.314;2022-07-23T06:51:03;5.22;;;1.70;;
21140;SDS011;10728;53.284;10.314;2022-07-23T06:53:56;4.75;;;1.50;;
21140;SDS011;10728;53.284;10.314;2022-07-23T06:56:35;4.43;;;1.73;;
21140;SDS011;10728;53.284;10.314;2022-07-23T06:59:21;4.95;;;1.55;;
21140;SDS011;10728;53.284;10.314;2022-07-23T07:01:52;6.00;;;1.55;;
21140;SDS011;10728;53.284;10.314;2022-07-23T07:04:23;6.78;;;1.52;;
21140;SDS011;10728;53.284;10.314;2022-07-23T07:06:49;3.78;;;1.63;;
21140;SDS011;10728;53.284;10.314;2022-07-23T07:09:14;7.15;;;1.73;;
21140;SDS011;10728;53.284;10.314;2022-07-23T07:11:40;7.78;;;1.42;;
21140;SDS011;10728;53.284;10.314;2022-07-23T07:14:05;5.70;;;1.13;;
21140;SDS011;10728;53.284;10.314;2022-07-23T07:16:31;2.88;;;0.95;;
21140;SDS011;10728;53.284;10.314;2022-07-23T07:19:01;4.45;;;1.10;;
21140;SDS011;10728;53.284;10.314;2022-07-23T07:21:26;3.42;;;1.05;;
21140;SDS011;10728;53.284;10.314;2022-07-23T07:24:08;3.42;;;1.25;;
21140;SDS011;10728;53.284;10.314;2022-07-23T07:26:36;4.82;;;1.27;;
21140;SDS011;10728;53.284;10.314;2022-07-23T07:29:08;3.50;;;1.23;;
21140;SDS011;10728;53.284;10.314;2022-07-23T07:31:34;5.15;;;1.15;;
21140;SDS011;10728;53.284;10.314;2022-07-23T07:34:03;3.55;;;1.00;;
21140;SDS011;10728;53.284;10.314;2022-07-23T07:36:38;7.45;;;1.13;;
21140;SDS011;10728;53.284;10.314;2022-07-23T07:39:30;5.45;;;0.82;;
21140;SDS011;10728;53.284;10.314;2022-07-23T07:41:58;5.70;;;0.90;;
21140;SDS011;10728;53.284;10.314;2022-07-23T07:44:26;5.63;;;1.00;;
21140;SDS011;10728;53.284;10.314;2022-07-23T07:46:52;3.03;;;0.98;;
21140;SDS011;10728;53.284;10.314;2022-07-23T07:49:18;2.88;;;0.80;;
21140;SDS011;10728;53.284;10.314;2022-07-23T07:51:54;4.85;;;1.15;;
21140;SDS011;10728;53.284;10.314;2022-07-23T07:54:19;5.13;;;1.17;;
21140;SDS011;10728;53.284;10.314;2022-07-23T07:56:45;4.15;;;1.02;;
21140;SDS011;10728;53.284;10.314;2022-07-23T07:59:13;6.25;;;1.10;;
21140;SDS011;10728;53.284;10.314;2022-07-23T08:01:47;4.22;;;1.05;;
21140;SDS011;10728;53.284;10.314;2022-07-23T08:04:13;2.40;;;1.00;;
21140;SDS011;10728;53.284;10.314;2022-07-23T08:06:41;3.42;;;0.90;;
21140;SDS011;10728;53.284;10.314;2022-07-23T08:09:06;6.18;;;1.20;;
21140;SDS011;10728;53.284;10.314;2022-07-23T08:11:32;2.45;;;0.90;;
21140;SDS011;10728;53.284;10.314;2022-07-23T08:14:01;2.63;;;1.10;;
21140;SDS011;10728;53.284;10.314;2022-07-23T08:16:29;3.78;;;1.08;;
21140;SDS011;10728;53.284;10.314;2022-07-23T08:18:55;3.70;;;1.00;;
21140;SDS011;10728;53.284;10.314;2022-07-23T08:21:21;3.78;;;1.10;;
21140;SDS011;10728;53.284;10.314;2022-07-23T08:23:49;5.25;;;1.10;;
21140;SDS011;10728;53.284;10.314;2022-07-23T08:26:25;4.20;;;1.17;;
21140;SDS011;10728;53.284;10.314;2022-07-23T08:28:50;1.83;;;1.15;;
21140;SDS011;10728;53.284;10.314;2022-07-23T08:31:16;6.80;;;1.50;;
21140;SDS011;10728;53.284;10.314;2022-07-23T08:33:44;4.03;;;1.40;;
21140;SDS011;10728;53.284;10.314;2022-07-23T08:36:09;5.30;;;1.33;;
21140;SDS011;10728;53.284;10.314;2022-07-23T08:38:37;2.42;;;0.98;;
21140;SDS011;10728;53.284;10.314;2022-07-23T08:41:03;1.80;;;1.08;;
21140;SDS011;10728;53.284;10.314;2022-07-23T08:43:34;2.40;;;1.10;;
21140;SDS011;10728;53.284;10.314;2022-07-23T08:46:04;2.50;;;1.10;;
21140;SDS011;10728;53.284;10.314;2022-07-23T08:48:31;3.20;;;1.25;;
21140;SDS011;10728;53.284;10.314;2022-07-23T08:50:59;2.67;;;1.30;;
21140;SDS011;10728;53.284;10.314;2022-07-23T08:53:29;2.72;;;1.33;;
21140;SDS011;10728;53.284;10.314;2022-07-23T08:55:56;3.20;;;1.40;;
21140;SDS011;10728;53.284;10.314;2022-07-23T08:58:26;3.25;;;1.45;;
21140;SDS011;10728;53.284;10.314;2022-07-23T09:00:52;3.53;;;1.20;;
21140;SDS011;10728;53.284;10.314;2022-07-23T09:03:22;2.55;;;1.23;;
21140;SDS011;10728;53.284;10.314;2022-07-23T09:05:52;2.50;;;1.10;;
21140;SDS011;10728;53.284;10.314;2022-07-23T09:08:24;11.40;;;1.92;;
21140;SDS011;10728;53.284;10.314;2022-07-23T09:10:54;2.75;;;1.35;;
21140;SDS011;10728;53.284;10.314;2022-07-23T09:13:34;1.85;;;1.00;;
21140;SDS011;10728;53.284;10.314;2022-07-23T09:16:14;4.72;;;1.10;;
21140;SDS011;10728;53.284;10.314;2022-07-23T09:18:48;2.30;;;1.05;;
21140;SDS011;10728;53.284;10.314;2022-07-23T09:21:27;4.25;;;0.90;;
21140;SDS011;10728;53.284;10.314;2022-07-23T09:23:59;2.05;;;0.95;;
21140;SDS011;10728;53.284;10.314;2022-07-23T09:26:34;2.83;;;1.00;;
21140;SDS011;10728;53.284;10.314;2022-07-23T09:31:42;2.90;;;0.98;;
21140;SDS011;10728;53.284;10.314;2022-07-23T09:34:10;3.15;;;1.08;;
21140;SDS011;10728;53.284;10.314;2022-07-23T09:36:42;3.97;;;0.90;;
21140;SDS011;10728;53.284;10.314;2022-07-23T09:39:10;2.60;;;0.90;;
21140;SDS011;10728;53.284;10.314;2022-07-23T09:41:46;2.47;;;0.73;;
21140;SDS011;10728;53.284;10.314;2022-07-23T09:44:32;2.70;;;0.80;;
21140;SDS011;10728;53.284;10.314;2022-07-23T09:47:18;2.88;;;0.85;;
21140;SDS011;10728;53.284;10.314;2022-07-23T09:50:22;2.40;;;0.90;;
21140;SDS011;10728;53.284;10.314;2022-07-23T09:52:49;1.40;;;0.73;;
21140;SDS011;10728;53.284;10.314;2022-07-23T09:55:43;1.90;;;0.70;;
21140;SDS011;10728;53.284;10.314;2022-07-23T09:58:23;2.33;;;0.80;;
21140;SDS011;10728;53.284;10.314;2022-07-23T10:01:07;2.05;;;0.82;;
21140;SDS011;10728;53.284;10.314;2022-07-23T10:03:36;3.58;;;0.75;;
21140;SDS011;10728;53.284;10.314;2022-07-23T10:06:28;1.08;;;0.60;;
21140;SDS011;10728;53.284;10.314;2022-07-23T10:09:27;2.70;;;0.70;;
21140;SDS011;10728;53.284;10.314;2022-07-23T10:12:28;3.22;;;0.80;;
21140;SDS011;10728;53.284;10.314;2022-07-23T10:15:10;0.88;;;0.50;;
21140;SDS011;10728;53.284;10.314;2022-07-23T10:17:36;2.00;;;0.70;;
21140;SDS011;10728;53.284;10.314;2022-07-23T10:20:02;1.85;;;0.80;;
21140;SDS011;10728;53.284;10.314;2022-07-23T10:22:33;1.50;;;0.70;;
21140;SDS011;10728;53.284;10.314;2022-07-23T10:27:55;2.17;;;0.80;;
21140;SDS011;10728;53.284;10.314;2022-07-23T10:36:38;4.38;;;0.50;;
21140;SDS011;10728;53.284;10.314;2022-07-23T10:41:52;2.83;;;0.60;;
21140;SDS011;10728;53.284;10.314;2022-07-23T10:44:18;1.60;;;0.60;;
21140;SDS011;10728;53.284;10.314;2022-07-23T10:46:54;0.68;;;0.50;;
21140;SDS011;10728;53.284;10.314;2022-07-23T10:49:42;1.50;;;0.63;;
21140;SDS011;10728;53.284;10.314;2022-07-23T10:57:27;3.50;;;0.60;;
21140;SDS011;10728;53.284;10.314;2022-07-23T11:02:31;0.85;;;0.60;;
21140;SDS011;10728;53.284;10.314;2022-07-23T11:05:04;1.63;;;0.50;;
21140;SDS011;10728;53.284;10.314;2022-07-23T11:13:30;1.27;;;0.60;;
21140;SDS011;10728;53.284;10.314;2022-07-23T11:16:13;3.28;;;1.13;;
21140;SDS011;10728;53.284;10.314;2022-07-23T11:18:57;1.50;;;0.60;;
21140;SDS011;10728;53.284;10.314;2022-07-23T11:24:10;1.63;;;0.65;;
21140;SDS011;10728;53.284;10.314;2022-07-23T11:32:11;1.85;;;0.60;;
21140;SDS011;10728;53.284;10.314;2022-07-23T11:34:53;1.35;;;0.60;;
21140;SDS011;10728;53.284;10.314;2022-07-23T11:37:40;3.38;;;0.50;;
21140;SDS011;10728;53.284;10.314;2022-07-23T11:40:09;3.55;;;0.73;;
21140;SDS011;10728;53.284;10.314;2022-07-23T11:45:34;0.90;;;0.50;;
21140;SDS011;10728;53.284;10.314;2022-07-23T11:48:04;19.02;;;1.30;;
21140;SDS011;10728;53.284;10.314;2022-07-23T11:50:45;0.90;;;0.35;;
21140;SDS011;10728;53.284;10.314;2022-07-23T11:53:27;1.77;;;0.50;;
21140;SDS011;10728;53.284;10.314;2022-07-23T11:58:56;2.90;;;0.77;;
21140;SDS011;10728;53.284;10.314;2022-07-23T12:01:24;10.80;;;2.47;;
21140;SDS011;10728;53.284;10.314;2022-07-23T12:03:59;4.28;;;1.00;;
21140;SDS011;10728;53.284;10.314;2022-07-23T12:06:28;3.05;;;0.90;;
21140;SDS011;10728;53.284;10.314;2022-07-23T12:08:54;2.47;;;0.85;;
21140;SDS011;10728;53.284;10.314;2022-07-23T12:11:25;3.83;;;1.33;;
21140;SDS011;10728;53.284;10.314;2022-07-23T12:14:00;1.50;;;0.52;;
21140;SDS011;10728;53.284;10.314;2022-07-23T12:16:40;0.40;;;0.40;;
21140;SDS011;10728;53.284;10.314;2022-07-23T12:19:08;1.85;;;0.45;;
21140;SDS011;10728;53.284;10.314;2022-07-23T12:21:34;1.08;;;0.40;;
21140;SDS011;10728;53.284;10.314;2022-07-23T12:24:09;0.50;;;0.30;;
21140;SDS011;10728;53.284;10.314;2022-07-23T12:26:38;0.47;;;0.40;;
21140;SDS011;10728;53.284;10.314;2022-07-23T12:29:04;0.63;;;0.40;;
21140;SDS011;10728;53.284;10.314;2022-07-23T12:31:32;0.95;;;0.40;;
21140;SDS011;10728;53.284;10.314;2022-07-23T12:34:15;0.90;;;0.40;;
21140;SDS011;10728;53.284;10.314;2022-07-23T12:36:55;2.88;;;0.40;;
21140;SDS011;10728;53.284;10.314;2022-07-23T12:39:29;1.58;;;0.47;;
21140;SDS011;10728;53.284;10.314;2022-07-23T12:42:11;1.13;;;0.32;;
21140;SDS011;10728;53.284;10.314;2022-07-23T12:44:40;0.82;;;0.60;;
21140;SDS011;10728;53.284;10.314;2022-07-23T12:47:05;0.82;;;0.47;;
21140;SDS011;10728;53.284;10.314;2022-07-23T12:49:33;1.05;;;0.45;;
21140;SDS011;10728;53.284;10.314;2022-07-23T12:52:04;0.95;;;0.50;;
21140;SDS011;10728;53.284;10.314;2022-07-23T12:54:45;0.50;;;0.40;;
21140;SDS011;10728;53.284;10.314;2022-07-23T12:57:44;1.98;;;0.52;;
21140;SDS011;10728;53.284;10.314;2022-07-23T13:00:13;0.90;;;0.50;;
21140;SDS011;10728;53.284;10.314;2022-07-23T13:02:48;1.20;;;0.40;;
21140;SDS011;10728;53.284;10.314;2022-07-23T13:08:07;0.30;;;0.30;;
21140;SDS011;10728;53.284;10.314;2022-07-23T13:10:33;1.77;;;0.70;;
21140;SDS011;10728;53.284;10.314;2022-07-23T13:13:01;1.80;;;0.50;;
21140;SDS011;10728;53.284;10.314;2022-07-23T13:15:37;0.60;;;0.60;;
21140;SDS011;10728;53.284;10.314;2022-07-23T13:18:05;5.20;;;0.85;;
21140;SDS011;10728;53.284;10.314;2022-07-23T13:20:31;2.72;;;0.60;;
21140;SDS011;10728;53.284;10.314;2022-07-23T13:23:04;1.42;;;0.57;;
21140;SDS011;10728;53.284;10.314;2022-07-23T13:25:37;0.73;;;0.50;;
21140;SDS011;10728;53.284;10.314;2022-07-23T13:28:03;2.22;;;0.40;;
21140;SDS011;10728;53.284;10.314;2022-07-23T13:30:31;5.00;;;0.80;;
21140;SDS011;10728;53.284;10.314;2022-07-23T13:32:58;0.82;;;0.40;;
21140;SDS011;10728;53.284;10.314;2022-07-23T13:35:24;3.20;;;0.70;;
21140;SDS011;10728;53.284;10.314;2022-07-23T13:37:54;1.55;;;0.60;;
21140;SDS011;10728;53.284;10.314;2022-07-23T13:40:29;1.60;;;0.60;;
21140;SDS011;10728;53.284;10.314;2022-07-23T13:43:12;0.88;;;0.50;;
21140;SDS011;10728;53.284;10.314;2022-07-23T13:46:00;0.40;;;0.30;;
21140;SDS011;10728;53.284;10.314;2022-07-23T13:48:26;2.00;;;0.47;;
21140;SDS011;10728;53.284;10.314;2022-07-23T13:51:00;0.68;;;0.60;;
21140;SDS011;10728;53.284;10.314;2022-07-23T13:53:26;2.42;;;0.60;;
21140;SDS011;10728;53.284;10.314;2022-07-23T13:55:52;4.00;;;0.77;;
21140;SDS011;10728;53.284;10.314;2022-07-23T13:58:22;0.50;;;0.50;;
21140;SDS011;10728;53.284;10.314;2022-07-23T14:00:49;1.73;;;0.50;;
21140;SDS011;10728;53.284;10.314;2022-07-23T14:03:16;2.22;;;0.30;;
21140;SDS011;10728;53.284;10.314;2022-07-23T14:05:42;1.48;;;0.60;;
21140;SDS011;10728;53.284;10.314;2022-07-23T14:08:08;3.65;;;0.60;;
21140;SDS011;10728;53.284;10.314;2022-07-23T14:10:34;2.75;;;0.55;;
21140;SDS011;10728;53.284;10.314;2022-07-23T14:13:02;2.08;;;0.60;;
21140;SDS011;10728;53.284;10.314;2022-07-23T14:15:29;1.83;;;0.57;;
21140;SDS011;10728;53.284;10.314;2022-07-23T14:17:57;0.93;;;0.47;;
21140;SDS011;10728;53.284;10.314;2022-07-23T14:20:23;2.83;;;0.65;;
21140;SDS011;10728;53.284;10.314;2022-07-23T14:22:52;1.70;;;0.50;;
21140;SDS011;10728;53.284;10.314;2022-07-23T14:25:20;2.83;;;0.75;;
21140;SDS011;10728;53.284;10.314;2022-07-23T14:27:47;2.33;;;0.60;;
21140;SDS011;10728;53.284;10.314;2022-07-23T14:30:13;1.80;;;0.70;;
21140;SDS011;10728;53.284;10.314;2022-07-23T14:32:40;3.28;;;0.70;;
21140;SDS011;10728;53.284;10.314;2022-07-23T14:35:06;3.00;;;0.63;;
21140;SDS011;10728;53.284;10.314;2022-07-23T14:37:34;1.40;;;0.55;;
21140;SDS011;10728;53.284;10.314;2022-07-23T14:40:00;0.88;;;0.50;;
21140;SDS011;10728;53.284;10.314;2022-07-23T14:42:31;0.77;;;0.70;;
21140;SDS011;10728;53.284;10.314;2022-07-23T14:44:57;0.50;;;0.43;;
21140;SDS011;10728;53.284;10.314;2022-07-23T14:47:22;3.17;;;0.75;;
21140;SDS011;10728;53.284;10.314;2022-07-23T14:49:48;1.58;;;0.50;;
21140;SDS011;10728;53.284;10.314;2022-07-23T14:52:14;2.47;;;0.60;;
21140;SDS011;10728;53.284;10.314;2022-07-23T14:54:42;1.98;;;0.40;;
21140;SDS011;10728;53.284;10.314;2022-07-23T14:57:07;1.27;;;0.52;;
21140;SDS011;10728;53.284;10.314;2022-07-23T14:59:34;1.90;;;0.68;;
21140;SDS011;10728;53.284;10.314;2022-07-23T15:02:05;2.75;;;0.70;;
21140;SDS011;10728;53.284;10.314;2022-07-23T15:04:31;2.95;;;0.60;;
21140;SDS011;10728;53.284;10.314;2022-07-23T15:07:02;1.77;;;0.50;;
21140;SDS011;10728;53.284;10.314;2022-07-23T15:09:28;0.82;;;0.70;;
21140;SDS011;10728;53.284;10.314;2022-07-23T15:11:56;1.83;;;0.85;;
21140;SDS011;10728;53.284;10.314;2022-07-23T15:14:31;2.60;;;0.85;;
21140;SDS011;10728;53.284;10.314;2022-07-23T15:17:10;1.33;;;0.60;;
21140;SDS011;10728;53.284;10.314;2022-07-23T15:19:41;1.13;;;0.57;;
21140;SDS011;10728;53.284;10.314;2022-07-23T15:22:07;2.88;;;0.70;;
21140;SDS011;10728;53.284;10.314;2022-07-23T15:24:43;4.68;;;0.80;;
21140;SDS011;10728;53.284;10.314;2022-07-23T15:27:12;5.72;;;0.90;;
21140;SDS011;10728;53.284;10.314;2022-07-23T15:29:37;1.55;;;0.52;;
21140;SDS011;10728;53.284;10.314;2022-07-23T15:32:10;2.40;;;0.60;;
21140;SDS011;10728;53.284;10.314;2022-07-23T15:34:39;3.55;;;0.80;;
21140;SDS011;10728;53.284;10.314;2022-07-23T15:37:07;1.35;;;0.65;;
21140;SDS011;10728;53.284;10.314;2022-07-23T15:39:33;1.90;;;0.50;;
21140;SDS011;10728;53.284;10.314;2022-07-23T15:42:10;3.22;;;0.50;;
21140;SDS011;10728;53.284;10.314;2022-07-23T15:44:38;2.40;;;0.57;;
21140;SDS011;10728;53.284;10.314;2022-07-23T15:47:18;0.77;;;0.60;;
21140;SDS011;10728;53.284;10.314;2022-07-23T15:49:48;1.15;;;0.50;;
21140;SDS011;10728;53.284;10.314;2022-07-23T15:52:19;2.92;;;0.60;;